Indian Valley, Idaho
Current Conditions -  °F | °C
As of 8:51 PM on Wednesday 17 Dec 2014 (Local Time) from KMYL Reporting Station
Overcast Overcast  
Wind Chill: 31°   Ceiling: 3400
Heat Index: 31°   Visibility: 10mi
Dew Point: 29°   Wind: 0mph
Humidity: 92%   Direction: NA
Pressure: 29.95"   Gusts: NA
Location:  44.57°N, 116.45°W
Report Text: KMYL 180351Z AUTO 00000KT 10SM OVC034 M01/M02 A2995 RMK AO2 SLP170 T10061017
Loading
Personal Weather Stations






























Interactive Weather Map New forecast layout! Learn more

10-Day Weather Forecast

Advertisements
Track Severe Weather on mobile